METAR Formatted Surface Weather Observation
Issued by NWS

Home | Current Version | Previous Version | Text Only | Print | Product List | Glossary On
Versions: 1 2 3 4 5 6 7 8 9
000
SAUS41 KRLX 060455
MTRCKB
METAR KCKB 060453Z AUTO 00000KT 9SM M16/M16 A3047 RMK AO2 SLP333
T11561161 400001156 TSNO $



USA.gov is the U.S. government's official web portal to all federal, state and local government web resources and services.